sensor_id;sensor_type;location;lat;lon;timestamp;pressure;altitude;pressure_sealevel;temperature;humidity
31011;BME280;26395;53.412;19.598;2023-08-17T00:06:43;100847.54;;;24.48;83.15
31011;BME280;26395;53.412;19.598;2023-08-17T00:21:46;100858.13;;;24.31;82.64
31011;BME280;26395;53.412;19.598;2023-08-17T00:36:49;100862.75;;;24.19;82.03
31011;BME280;26395;53.412;19.598;2023-08-17T00:51:53;100866.68;;;24.36;80.94
31011;BME280;26395;53.412;19.598;2023-08-17T01:06:56;100863.66;;;24.18;81.41
31011;BME280;26395;53.412;19.598;2023-08-17T01:22:05;100860.00;;;24.17;80.68
31011;BME280;26395;53.412;19.598;2023-08-17T01:37:10;100864.84;;;24.20;79.48
31011;BME280;26395;53.412;19.598;2023-08-17T01:52:14;100857.42;;;24.10;78.85
31011;BME280;26395;53.412;19.598;2023-08-17T02:07:18;100852.22;;;23.94;77.34
31011;BME280;26395;53.412;19.598;2023-08-17T02:22:22;100853.88;;;23.91;75.75
31011;BME280;26395;53.412;19.598;2023-08-17T02:37:26;100828.95;;;23.83;75.71
31011;BME280;26395;53.412;19.598;2023-08-17T02:52:29;100821.73;;;23.82;74.93
31011;BME280;26395;53.412;19.598;2023-08-17T03:07:33;100819.05;;;23.80;74.15
31011;BME280;26395;53.412;19.598;2023-08-17T03:22:37;100837.91;;;23.73;73.83
31011;BME280;26395;53.412;19.598;2023-08-17T03:37:40;100828.17;;;23.57;73.70
31011;BME280;26395;53.412;19.598;2023-08-17T03:52:45;100856.09;;;23.68;73.07
31011;BME280;26395;53.412;19.598;2023-08-17T04:07:48;100836.63;;;23.76;72.59
31011;BME280;26395;53.412;19.598;2023-08-17T04:22:52;100849.34;;;23.51;73.21
31011;BME280;26395;53.412;19.598;2023-08-17T04:44:08;100854.89;;;23.68;72.81
31011;BME280;26395;53.412;19.598;2023-08-17T04:59:11;100841.16;;;24.01;71.93
31011;BME280;26395;53.412;19.598;2023-08-17T05:14:14;100816.45;;;23.89;71.44
31011;BME280;26395;53.412;19.598;2023-08-17T05:29:18;100858.02;;;24.09;71.45
31011;BME280;26395;53.412;19.598;2023-08-17T05:44:22;100869.77;;;24.46;70.36
31011;BME280;26395;53.412;19.598;2023-08-17T05:59:27;100841.66;;;24.80;70.14
31011;BME280;26395;53.412;19.598;2023-08-17T06:14:33;100886.09;;;25.52;69.04
31011;BME280;26395;53.412;19.598;2023-08-17T06:29:36;100896.71;;;26.25;68.12
31011;BME280;26395;53.412;19.598;2023-08-17T06:44:39;100921.98;;;26.21;67.09
31011;BME280;26395;53.412;19.598;2023-08-17T06:59:43;100909.64;;;26.40;67.44
31011;BME280;26395;53.412;19.598;2023-08-17T07:14:49;100917.67;;;29.09;64.48
31011;BME280;26395;53.412;19.598;2023-08-17T07:29:53;100928.52;;;30.15;61.27
31011;BME280;26395;53.412;19.598;2023-08-17T07:45:01;100927.58;;;29.42;62.59
31011;BME280;26395;53.412;19.598;2023-08-17T08:00:12;100921.52;;;30.12;62.10
31011;BME280;26395;53.412;19.598;2023-08-17T08:15:15;100918.20;;;29.57;63.75
31011;BME280;26395;53.412;19.598;2023-08-17T08:30:18;100921.29;;;31.19;63.48
31011;BME280;26395;53.412;19.598;2023-08-17T08:45:23;100918.54;;;33.19;59.44
31011;BME280;26395;53.412;19.598;2023-08-17T09:00:27;100914.45;;;33.17;59.01
31011;BME280;26395;53.412;19.598;2023-08-17T09:15:30;100909.23;;;35.61;56.08
31011;BME280;26395;53.412;19.598;2023-08-17T09:30:34;100901.20;;;36.84;53.63
31011;BME280;26395;53.412;19.598;2023-08-17T09:45:37;100887.20;;;37.08;53.46
31011;BME280;26395;53.412;19.598;2023-08-17T10:00:45;100870.66;;;36.69;53.99
31011;BME280;26395;53.412;19.598;2023-08-17T10:16:22;100863.10;;;37.59;53.01
31011;BME280;26395;53.412;19.598;2023-08-17T10:31:35;100860.27;;;37.26;52.78
31011;BME280;26395;53.412;19.598;2023-08-17T10:46:39;100847.85;;;36.94;53.59
31011;BME280;26395;53.412;19.598;2023-08-17T11:01:45;100841.72;;;36.31;54.79
31011;BME280;26395;53.412;19.598;2023-08-17T11:16:49;100834.20;;;37.75;53.99
31011;BME280;26395;53.412;19.598;2023-08-17T11:31:53;100820.85;;;37.62;53.59
31011;BME280;26395;53.412;19.598;2023-08-17T11:46:57;100814.54;;;37.66;54.11
31011;BME280;26395;53.412;19.598;2023-08-17T12:02:01;100807.70;;;38.68;53.17
31011;BME280;26395;53.412;19.598;2023-08-17T12:17:07;100803.16;;;38.72;52.54
31011;BME280;26395;53.412;19.598;2023-08-17T12:32:20;100792.74;;;38.81;53.44
31011;BME280;26395;53.412;19.598;2023-08-17T12:47:24;100778.03;;;38.19;51.97
31011;BME280;26395;53.412;19.598;2023-08-17T13:02:28;100769.96;;;37.63;52.86
31011;BME280;26395;53.412;19.598;2023-08-17T13:17:32;100757.52;;;38.87;52.28
31011;BME280;26395;53.412;19.598;2023-08-17T13:32:45;100751.57;;;37.93;49.79
31011;BME280;26395;53.412;19.598;2023-08-17T13:47:49;100752.86;;;38.20;51.01
31011;BME280;26395;53.412;19.598;2023-08-17T14:02:53;100753.23;;;38.57;51.44
31011;BME280;26395;53.412;19.598;2023-08-17T14:18:00;100745.17;;;38.21;51.08
31011;BME280;26395;53.412;19.598;2023-08-17T14:33:36;100730.52;;;38.77;50.85
31011;BME280;26395;53.412;19.598;2023-08-17T14:48:59;100703.58;;;39.27;50.35
31011;BME280;26395;53.412;19.598;2023-08-17T15:04:39;100693.09;;;39.63;50.51
31011;BME280;26395;53.412;19.598;2023-08-17T15:19:59;100680.64;;;38.38;51.30
31011;BME280;26395;53.412;19.598;2023-08-17T15:35:03;100673.77;;;37.26;52.61
31011;BME280;26395;53.412;19.598;2023-08-17T15:50:10;100651.36;;;36.56;54.05
31011;BME280;26395;53.412;19.598;2023-08-17T16:06:00;100661.05;;;37.17;55.45
31011;BME280;26395;53.412;19.598;2023-08-17T16:21:42;100683.00;;;37.27;56.04
31011;BME280;26395;53.412;19.598;2023-08-17T16:37:07;100698.15;;;36.40;57.85
31011;BME280;26395;53.412;19.598;2023-08-17T16:52:36;100724.71;;;35.26;59.84
31011;BME280;26395;53.412;19.598;2023-08-17T17:08:15;100748.09;;;31.77;65.06
31011;BME280;26395;53.412;19.598;2023-08-17T17:23:19;100733.34;;;29.88;75.09
31011;BME280;26395;53.412;19.598;2023-08-17T17:38:22;100735.94;;;29.24;80.88
31011;BME280;26395;53.412;19.598;2023-08-17T17:53:25;100752.73;;;28.18;83.44
31011;BME280;26395;53.412;19.598;2023-08-17T18:08:29;100746.30;;;28.13;83.62
31011;BME280;26395;53.412;19.598;2023-08-17T18:23:33;100748.70;;;28.23;85.19
31011;BME280;26395;53.412;19.598;2023-08-17T18:38:46;100752.73;;;27.98;85.30
31011;BME280;26395;53.412;19.598;2023-08-17T18:55:00;100758.98;;;27.94;88.74
31011;BME280;26395;53.412;19.598;2023-08-17T19:10:29;100763.15;;;28.02;89.91
31011;BME280;26395;53.412;19.598;2023-08-17T19:26:00;100773.30;;;28.20;90.03
31011;BME280;26395;53.412;19.598;2023-08-17T19:41:15;100762.38;;;28.27;91.49
31011;BME280;26395;53.412;19.598;2023-08-17T19:56:50;100778.58;;;28.02;92.02
31011;BME280;26395;53.412;19.598;2023-08-17T20:13:53;100768.92;;;27.74;92.41
31011;BME280;26395;53.412;19.598;2023-08-17T20:28:56;100772.27;;;27.35;94.94
31011;BME280;26395;53.412;19.598;2023-08-17T20:43:59;100770.88;;;27.21;96.17
31011;BME280;26395;53.412;19.598;2023-08-17T20:59:03;100766.27;;;27.26;96.52
31011;BME280;26395;53.412;19.598;2023-08-17T21:14:06;100774.09;;;27.43;95.30
31011;BME280;26395;53.412;19.598;2023-08-17T21:29:10;100774.09;;;27.22;96.44
31011;BME280;26395;53.412;19.598;2023-08-17T21:44:13;100774.56;;;27.19;96.79
31011;BME280;26395;53.412;19.598;2023-08-17T21:59:16;100787.33;;;26.96;97.97
31011;BME280;26395;53.412;19.598;2023-08-17T22:14:20;100790.14;;;27.01;98.03
31011;BME280;26395;53.412;19.598;2023-08-17T22:29:23;100786.92;;;26.86;98.41
31011;BME280;26395;53.412;19.598;2023-08-17T22:44:27;100784.34;;;26.86;97.51
31011;BME280;26395;53.412;19.598;2023-08-17T22:59:30;100778.67;;;26.63;98.29
31011;BME280;26395;53.412;19.598;2023-08-17T23:14:34;100776.35;;;26.73;97.89
31011;BME280;26395;53.412;19.598;2023-08-17T23:29:38;100782.55;;;26.46;98.13
31011;BME280;26395;53.412;19.598;2023-08-17T23:44:42;100790.94;;;26.26;98.50
31011;BME280;26395;53.412;19.598;2023-08-17T23:59:45;100799.96;;;25.93;98.49
